Aérodrome :
LOGIN :

S'inscrire | Disclaimer

   EN    FR    IT 

 










Légende :    VFR   VFR Marginal   IFR   IFR Intensif   IFR Très Intensif
Visi : 
Plafond : 
>= 8 km
>= 3000ft
5 à 8 km
1000 à 3000 ft
1500m à 5 km
500 à 1000 ft
800 à 1500m
200 à 500 ft
< 800m
< 200 ft
Symboles :   Orages  Brouillard  Fortes neiges  Fortes précipitations  Vent > 20 kt
SIGMETs :   Divers  Orages  Givrage  Turbulence  Onde Orograph.  Cendres Volcan.







- Altitude de l'aérodrome : 22 ft
- Code IATA : LDY
- Voir les cartes d'approche


EGAE - Londonderry Eglington

DERNIER METAR :
  • 221550Z 24016KT 9999 4000S VCSH FEW006 SCT012 BKN024 02/01 Q0997

METARs EXPIRÉS :
  • 221520Z VRB03KT 9000 4000SW VCSH FEW006 BKN011CB 02/01 Q0998
  • 221450Z VRB02KT 5000 -RASN FEW008 BKN011CB 02/01 Q0997
  • 221420Z 34013KT 300V010 9999 3000E -RA FEW005 BKN011CB BKN022 03/02 Q0997
  • 221350Z 25011KT 9999 VCSH FEW007 SCT014CB BKN029 05/02 Q0997

TAF AMD TAF EGAE
Valide du 22 à 15h jusqu'au 22 à 22h UTC


221458Z 2215/2222 23008KT 9999 FEW007 SCT012CB
TEMPO 2215/2222 3000 SHRASN TSRAGS BKN007 BKN012CB
Pas de NOTAMs connus pour ce terrain.
1 SIGMET publié pour la FIR Scottish (EGPX) :
 
Turbulence forte
EGPX SIGMET 03 VALID 221430/221830 EGRR
EGPX SCOTTISH FIR SEV TURB FCST WI N5500 W00530 - N5355 W00530 - N5510 W00709 - N5520 W00655 - N5525 W00720 - N5708 W01000 - N6002 W01000 - N5500 W00400 - N5500 W00530 FL160/400 MOV E 15KT NC=



MET'MAP, la Météo Aéronautique d'un coup d'oeil ! - Copyright ORBIFLY Décembre 2007 - Disclaimer

ORBIFLY MET'MAP TEAM :

Programmation & Développement : Alexandra Zaïnal
Conception & Développement : Baudouin d'Aumeries
Co-Programmation & Développement : Marc-Olivier Méhu
Soutien technique & logistique : Manuel Goepfert

Contact : metmap@orbifly.com




SOURCES & CREDITS :

   NOAA